sensor_id;sensor_type;location;lat;lon;timestamp;temperature;humidity
21906;DHT22;11117;48.644;9.006;2022-07-10T00:01:57;16.50;99.90
21906;DHT22;11117;48.644;9.006;2022-07-10T00:04:23;16.40;99.90
21906;DHT22;11117;48.644;9.006;2022-07-10T00:06:49;16.30;99.90
21906;DHT22;11117;48.644;9.006;2022-07-10T00:09:14;16.30;99.90
21906;DHT22;11117;48.644;9.006;2022-07-10T00:11:41;16.20;99.90
21906;DHT22;11117;48.644;9.006;2022-07-10T00:14:07;16.20;99.90
21906;DHT22;11117;48.644;9.006;2022-07-10T00:16:33;16.10;99.90
21906;DHT22;11117;48.644;9.006;2022-07-10T00:18:59;16.10;99.90
21906;DHT22;11117;48.644;9.006;2022-07-10T00:21:25;16.10;99.90
21906;DHT22;11117;48.644;9.006;2022-07-10T00:23:50;16.20;99.90
21906;DHT22;11117;48.644;9.006;2022-07-10T00:26:16;16.30;99.90
21906;DHT22;11117;48.644;9.006;2022-07-10T00:28:41;16.20;99.90
21906;DHT22;11117;48.644;9.006;2022-07-10T00:31:08;16.10;99.90
21906;DHT22;11117;48.644;9.006;2022-07-10T00:33:34;16.10;99.90
21906;DHT22;11117;48.644;9.006;2022-07-10T00:35:59;16.20;99.90
21906;DHT22;11117;48.644;9.006;2022-07-10T00:38:25;16.20;99.90
21906;DHT22;11117;48.644;9.006;2022-07-10T00:40:51;16.20;99.90
21906;DHT22;11117;48.644;9.006;2022-07-10T00:43:17;16.10;99.90
21906;DHT22;11117;48.644;9.006;2022-07-10T00:45:43;16.00;99.90
21906;DHT22;11117;48.644;9.006;2022-07-10T00:48:08;16.00;99.90
21906;DHT22;11117;48.644;9.006;2022-07-10T00:50:34;16.00;99.90
21906;DHT22;11117;48.644;9.006;2022-07-10T00:53:01;15.90;99.90
21906;DHT22;11117;48.644;9.006;2022-07-10T00:55:26;15.90;99.90
21906;DHT22;11117;48.644;9.006;2022-07-10T00:57:52;15.80;99.90
21906;DHT22;11117;48.644;9.006;2022-07-10T01:00:18;15.80;99.90
21906;DHT22;11117;48.644;9.006;2022-07-10T01:02:44;15.90;99.90
21906;DHT22;11117;48.644;9.006;2022-07-10T01:05:10;15.90;99.90
21906;DHT22;11117;48.644;9.006;2022-07-10T01:07:35;15.80;99.90
21906;DHT22;11117;48.644;9.006;2022-07-10T01:10:02;15.70;99.90
21906;DHT22;11117;48.644;9.006;2022-07-10T01:12:30;15.80;99.90
21906;DHT22;11117;48.644;9.006;2022-07-10T01:14:56;15.70;99.90
21906;DHT22;11117;48.644;9.006;2022-07-10T01:17:22;15.70;99.90
21906;DHT22;11117;48.644;9.006;2022-07-10T01:19:47;15.70;99.90
21906;DHT22;11117;48.644;9.006;2022-07-10T01:22:13;15.70;99.90
21906;DHT22;11117;48.644;9.006;2022-07-10T01:24:39;15.70;99.90
21906;DHT22;11117;48.644;9.006;2022-07-10T01:27:04;15.70;99.90
21906;DHT22;11117;48.644;9.006;2022-07-10T01:29:30;15.70;99.90
21906;DHT22;11117;48.644;9.006;2022-07-10T01:31:56;15.60;99.90
21906;DHT22;11117;48.644;9.006;2022-07-10T01:34:21;15.60;99.90
21906;DHT22;11117;48.644;9.006;2022-07-10T01:36:48;15.70;99.90
21906;DHT22;11117;48.644;9.006;2022-07-10T01:39:14;15.60;99.90
21906;DHT22;11117;48.644;9.006;2022-07-10T01:41:39;15.60;99.90
21906;DHT22;11117;48.644;9.006;2022-07-10T01:44:05;15.70;99.90
21906;DHT22;11117;48.644;9.006;2022-07-10T01:46:31;15.60;99.90
21906;DHT22;11117;48.644;9.006;2022-07-10T01:48:56;15.60;99.90
21906;DHT22;11117;48.644;9.006;2022-07-10T01:51:22;15.50;99.90
21906;DHT22;11117;48.644;9.006;2022-07-10T01:53:49;15.50;99.90
21906;DHT22;11117;48.644;9.006;2022-07-10T01:56:15;15.50;99.90
21906;DHT22;11117;48.644;9.006;2022-07-10T01:58:41;15.50;99.90
21906;DHT22;11117;48.644;9.006;2022-07-10T02:01:08;15.40;99.90
21906;DHT22;11117;48.644;9.006;2022-07-10T02:03:35;15.40;99.90
21906;DHT22;11117;48.644;9.006;2022-07-10T02:06:01;15.40;99.90
21906;DHT22;11117;48.644;9.006;2022-07-10T02:08:26;15.20;99.90
21906;DHT22;11117;48.644;9.006;2022-07-10T02:10:52;15.20;99.90
21906;DHT22;11117;48.644;9.006;2022-07-10T02:13:19;15.10;99.90
21906;DHT22;11117;48.644;9.006;2022-07-10T02:15:45;15.10;99.90
21906;DHT22;11117;48.644;9.006;2022-07-10T02:18:11;15.00;99.90
21906;DHT22;11117;48.644;9.006;2022-07-10T02:20:36;14.90;99.90
21906;DHT22;11117;48.644;9.006;2022-07-10T02:23:02;14.90;99.90
21906;DHT22;11117;48.644;9.006;2022-07-10T02:25:28;14.80;99.90
21906;DHT22;11117;48.644;9.006;2022-07-10T02:27:53;14.80;99.90
21906;DHT22;11117;48.644;9.006;2022-07-10T02:30:19;14.80;99.90
21906;DHT22;11117;48.644;9.006;2022-07-10T02:32:45;14.80;99.90
21906;DHT22;11117;48.644;9.006;2022-07-10T02:35:10;14.80;99.90
21906;DHT22;11117;48.644;9.006;2022-07-10T02:37:36;14.80;99.90
21906;DHT22;11117;48.644;9.006;2022-07-10T02:40:02;14.90;99.90
21906;DHT22;11117;48.644;9.006;2022-07-10T02:42:27;14.90;99.90
21906;DHT22;11117;48.644;9.006;2022-07-10T02:44:53;15.00;99.90
21906;DHT22;11117;48.644;9.006;2022-07-10T02:47:19;15.00;99.90
21906;DHT22;11117;48.644;9.006;2022-07-10T02:49:44;15.00;99.90
21906;DHT22;11117;48.644;9.006;2022-07-10T02:52:10;15.00;99.90
21906;DHT22;11117;48.644;9.006;2022-07-10T02:54:37;15.00;99.90
21906;DHT22;11117;48.644;9.006;2022-07-10T02:57:03;15.00;99.90
21906;DHT22;11117;48.644;9.006;2022-07-10T02:59:29;15.00;99.90
21906;DHT22;11117;48.644;9.006;2022-07-10T03:01:54;15.00;99.90
21906;DHT22;11117;48.644;9.006;2022-07-10T03:04:20;15.10;99.90
21906;DHT22;11117;48.644;9.006;2022-07-10T03:06:46;15.00;99.90
21906;DHT22;11117;48.644;9.006;2022-07-10T03:09:11;15.00;99.90
21906;DHT22;11117;48.644;9.006;2022-07-10T03:11:37;15.00;99.90
21906;DHT22;11117;48.644;9.006;2022-07-10T03:14:02;14.90;99.90
21906;DHT22;11117;48.644;9.006;2022-07-10T03:16:28;14.90;99.90
21906;DHT22;11117;48.644;9.006;2022-07-10T03:18:56;14.80;99.90
21906;DHT22;11117;48.644;9.006;2022-07-10T03:21:23;14.70;99.90
21906;DHT22;11117;48.644;9.006;2022-07-10T03:23:49;14.70;99.90
21906;DHT22;11117;48.644;9.006;2022-07-10T03:26:16;14.60;99.90
21906;DHT22;11117;48.644;9.006;2022-07-10T03:28:41;14.50;99.90
21906;DHT22;11117;48.644;9.006;2022-07-10T03:31:07;14.50;99.90
21906;DHT22;11117;48.644;9.006;2022-07-10T03:33:34;14.50;99.90
21906;DHT22;11117;48.644;9.006;2022-07-10T03:36:03;14.50;99.90
21906;DHT22;11117;48.644;9.006;2022-07-10T03:38:29;14.50;99.90
21906;DHT22;11117;48.644;9.006;2022-07-10T03:40:54;14.60;99.90
21906;DHT22;11117;48.644;9.006;2022-07-10T03:43:20;14.60;99.90
21906;DHT22;11117;48.644;9.006;2022-07-10T03:45:46;14.60;99.90
21906;DHT22;11117;48.644;9.006;2022-07-10T03:48:11;14.50;99.90
21906;DHT22;11117;48.644;9.006;2022-07-10T03:50:37;14.60;99.90
21906;DHT22;11117;48.644;9.006;2022-07-10T03:53:02;14.60;99.90
21906;DHT22;11117;48.644;9.006;2022-07-10T03:55:28;14.60;99.90
21906;DHT22;11117;48.644;9.006;2022-07-10T03:57:53;14.60;99.90
21906;DHT22;11117;48.644;9.006;2022-07-10T04:00:24;14.70;99.90
21906;DHT22;11117;48.644;9.006;2022-07-10T04:03:01;14.70;99.90
21906;DHT22;11117;48.644;9.006;2022-07-10T04:05:28;14.80;99.90
21906;DHT22;11117;48.644;9.006;2022-07-10T04:07:54;14.70;99.90
21906;DHT22;11117;48.644;9.006;2022-07-10T04:10:20;14.80;99.90
21906;DHT22;11117;48.644;9.006;2022-07-10T04:12:46;14.80;99.90
21906;DHT22;11117;48.644;9.006;2022-07-10T04:15:11;14.80;99.90
21906;DHT22;11117;48.644;9.006;2022-07-10T04:17:37;14.90;99.90
21906;DHT22;11117;48.644;9.006;2022-07-10T04:20:03;15.00;99.90
21906;DHT22;11117;48.644;9.006;2022-07-10T04:22:29;15.00;99.90
21906;DHT22;11117;48.644;9.006;2022-07-10T04:24:55;15.10;99.90
21906;DHT22;11117;48.644;9.006;2022-07-10T04:27:21;15.10;99.90
21906;DHT22;11117;48.644;9.006;2022-07-10T04:29:47;15.00;99.90
21906;DHT22;11117;48.644;9.006;2022-07-10T04:32:13;15.00;99.90
21906;DHT22;11117;48.644;9.006;2022-07-10T04:34:39;14.90;99.90
21906;DHT22;11117;48.644;9.006;2022-07-10T04:37:05;15.00;99.90
21906;DHT22;11117;48.644;9.006;2022-07-10T04:39:31;15.00;99.90
21906;DHT22;11117;48.644;9.006;2022-07-10T04:41:57;15.00;99.90
21906;DHT22;11117;48.644;9.006;2022-07-10T04:44:22;15.10;99.90
21906;DHT22;11117;48.644;9.006;2022-07-10T04:46:48;15.20;99.90
21906;DHT22;11117;48.644;9.006;2022-07-10T04:49:13;15.30;99.90
21906;DHT22;11117;48.644;9.006;2022-07-10T04:51:39;15.20;99.90
21906;DHT22;11117;48.644;9.006;2022-07-10T04:54:05;15.30;99.90
21906;DHT22;11117;48.644;9.006;2022-07-10T04:56:30;15.30;99.90
21906;DHT22;11117;48.644;9.006;2022-07-10T04:58:56;15.20;99.90
21906;DHT22;11117;48.644;9.006;2022-07-10T05:01:21;15.00;99.90
21906;DHT22;11117;48.644;9.006;2022-07-10T05:03:47;15.10;99.90
21906;DHT22;11117;48.644;9.006;2022-07-10T05:06:13;15.10;99.90
21906;DHT22;11117;48.644;9.006;2022-07-10T05:08:38;15.10;99.90
21906;DHT22;11117;48.644;9.006;2022-07-10T05:11:04;15.00;99.90
21906;DHT22;11117;48.644;9.006;2022-07-10T05:13:30;14.90;99.90
21906;DHT22;11117;48.644;9.006;2022-07-10T05:15:55;14.80;99.90
21906;DHT22;11117;48.644;9.006;2022-07-10T05:18:21;14.70;99.90
21906;DHT22;11117;48.644;9.006;2022-07-10T05:20:46;14.80;99.90
21906;DHT22;11117;48.644;9.006;2022-07-10T05:23:12;14.80;99.90
21906;DHT22;11117;48.644;9.006;2022-07-10T05:25:38;14.80;99.90
21906;DHT22;11117;48.644;9.006;2022-07-10T05:28:04;14.90;99.90
21906;DHT22;11117;48.644;9.006;2022-07-10T05:30:30;14.90;99.90
21906;DHT22;11117;48.644;9.006;2022-07-10T05:32:56;14.90;99.90
21906;DHT22;11117;48.644;9.006;2022-07-10T05:35:21;14.80;99.90
21906;DHT22;11117;48.644;9.006;2022-07-10T05:37:47;14.80;99.90
21906;DHT22;11117;48.644;9.006;2022-07-10T05:40:12;14.90;99.90
21906;DHT22;11117;48.644;9.006;2022-07-10T05:42:38;14.90;99.90
21906;DHT22;11117;48.644;9.006;2022-07-10T05:45:04;14.90;99.90
21906;DHT22;11117;48.644;9.006;2022-07-10T05:47:30;14.90;99.90
21906;DHT22;11117;48.644;9.006;2022-07-10T05:49:55;15.00;99.90
21906;DHT22;11117;48.644;9.006;2022-07-10T05:52:21;15.10;99.90
21906;DHT22;11117;48.644;9.006;2022-07-10T05:54:47;15.30;99.90
21906;DHT22;11117;48.644;9.006;2022-07-10T05:57:12;15.30;99.90
21906;DHT22;11117;48.644;9.006;2022-07-10T05:59:38;15.50;99.90
21906;DHT22;11117;48.644;9.006;2022-07-10T06:02:03;15.50;99.90
21906;DHT22;11117;48.644;9.006;2022-07-10T06:04:29;15.50;99.90
21906;DHT22;11117;48.644;9.006;2022-07-10T06:06:55;15.60;99.90
21906;DHT22;11117;48.644;9.006;2022-07-10T06:09:20;15.70;99.90
21906;DHT22;11117;48.644;9.006;2022-07-10T06:11:46;16.00;99.90
21906;DHT22;11117;48.644;9.006;2022-07-10T06:14:12;16.00;99.90
21906;DHT22;11117;48.644;9.006;2022-07-10T06:16:37;16.00;99.90
21906;DHT22;11117;48.644;9.006;2022-07-10T06:19:03;16.00;99.90
21906;DHT22;11117;48.644;9.006;2022-07-10T06:21:29;15.90;99.90
21906;DHT22;11117;48.644;9.006;2022-07-10T06:23:54;15.80;99.90
21906;DHT22;11117;48.644;9.006;2022-07-10T06:26:20;15.70;99.90
21906;DHT22;11117;48.644;9.006;2022-07-10T06:28:46;15.70;99.90
21906;DHT22;11117;48.644;9.006;2022-07-10T06:31:11;15.70;98.90
21906;DHT22;11117;48.644;9.006;2022-07-10T06:33:37;15.70;99.00
21906;DHT22;11117;48.644;9.006;2022-07-10T06:36:03;15.70;98.40
21906;DHT22;11117;48.644;9.006;2022-07-10T06:38:28;15.70;98.10
21906;DHT22;11117;48.644;9.006;2022-07-10T06:40:54;15.70;98.40
21906;DHT22;11117;48.644;9.006;2022-07-10T06:43:19;15.80;98.60
21906;DHT22;11117;48.644;9.006;2022-07-10T06:45:45;15.90;98.70
21906;DHT22;11117;48.644;9.006;2022-07-10T06:48:11;16.00;98.30
21906;DHT22;11117;48.644;9.006;2022-07-10T06:50:37;16.00;98.60
21906;DHT22;11117;48.644;9.006;2022-07-10T06:53:03;16.10;98.50
21906;DHT22;11117;48.644;9.006;2022-07-10T06:55:30;16.10;98.70
21906;DHT22;11117;48.644;9.006;2022-07-10T06:57:56;16.10;99.10
21906;DHT22;11117;48.644;9.006;2022-07-10T07:00:22;16.00;99.00
21906;DHT22;11117;48.644;9.006;2022-07-10T07:02:48;16.00;98.90
21906;DHT22;11117;48.644;9.006;2022-07-10T07:05:14;15.80;99.10
21906;DHT22;11117;48.644;9.006;2022-07-10T07:07:39;15.80;99.40
21906;DHT22;11117;48.644;9.006;2022-07-10T07:10:06;15.70;99.20
21906;DHT22;11117;48.644;9.006;2022-07-10T07:12:32;15.80;98.90
21906;DHT22;11117;48.644;9.006;2022-07-10T07:14:57;16.00;97.70
21906;DHT22;11117;48.644;9.006;2022-07-10T07:17:23;16.00;97.00
21906;DHT22;11117;48.644;9.006;2022-07-10T07:19:49;16.00;96.30
21906;DHT22;11117;48.644;9.006;2022-07-10T07:22:14;16.10;96.40
21906;DHT22;11117;48.644;9.006;2022-07-10T07:24:40;16.20;95.70
21906;DHT22;11117;48.644;9.006;2022-07-10T07:27:06;16.10;95.90
21906;DHT22;11117;48.644;9.006;2022-07-10T07:29:34;16.10;95.90
21906;DHT22;11117;48.644;9.006;2022-07-10T07:32:00;16.00;95.80
21906;DHT22;11117;48.644;9.006;2022-07-10T07:34:25;16.10;95.50
21906;DHT22;11117;48.644;9.006;2022-07-10T07:36:51;16.20;95.80
21906;DHT22;11117;48.644;9.006;2022-07-10T07:39:16;16.50;95.90
21906;DHT22;11117;48.644;9.006;2022-07-10T07:41:42;16.60;95.20
21906;DHT22;11117;48.644;9.006;2022-07-10T07:44:08;16.60;94.80
21906;DHT22;11117;48.644;9.006;2022-07-10T07:46:33;16.70;94.60
21906;DHT22;11117;48.644;9.006;2022-07-10T07:48:59;16.70;94.70
21906;DHT22;11117;48.644;9.006;2022-07-10T07:51:24;16.80;94.40
21906;DHT22;11117;48.644;9.006;2022-07-10T07:53:50;16.90;94.40
21906;DHT22;11117;48.644;9.006;2022-07-10T07:56:16;17.10;94.40
21906;DHT22;11117;48.644;9.006;2022-07-10T07:58:41;17.10;94.20
21906;DHT22;11117;48.644;9.006;2022-07-10T08:01:07;17.20;93.70
21906;DHT22;11117;48.644;9.006;2022-07-10T08:03:32;17.50;93.30
21906;DHT22;11117;48.644;9.006;2022-07-10T08:05:58;17.60;92.80
21906;DHT22;11117;48.644;9.006;2022-07-10T08:08:23;17.70;92.30
21906;DHT22;11117;48.644;9.006;2022-07-10T08:10:49;17.70;92.10
21906;DHT22;11117;48.644;9.006;2022-07-10T08:13:15;17.40;91.90
21906;DHT22;11117;48.644;9.006;2022-07-10T08:15:40;17.50;92.10
21906;DHT22;11117;48.644;9.006;2022-07-10T08:18:06;17.80;91.80
21906;DHT22;11117;48.644;9.006;2022-07-10T08:20:33;18.10;91.40
21906;DHT22;11117;48.644;9.006;2022-07-10T08:22:59;18.20;91.00
21906;DHT22;11117;48.644;9.006;2022-07-10T08:25:24;18.30;90.20
21906;DHT22;11117;48.644;9.006;2022-07-10T08:27:50;17.90;90.00
21906;DHT22;11117;48.644;9.006;2022-07-10T08:30:16;18.00;90.30
21906;DHT22;11117;48.644;9.006;2022-07-10T08:32:42;18.20;90.60
21906;DHT22;11117;48.644;9.006;2022-07-10T08:35:09;18.00;90.00
21906;DHT22;11117;48.644;9.006;2022-07-10T08:37:39;18.70;89.30
21906;DHT22;11117;48.644;9.006;2022-07-10T08:40:05;19.30;87.00
21906;DHT22;11117;48.644;9.006;2022-07-10T08:42:32;18.80;86.80
21906;DHT22;11117;48.644;9.006;2022-07-10T08:44:58;19.00;86.90
21906;DHT22;11117;48.644;9.006;2022-07-10T08:47:23;18.80;87.50
21906;DHT22;11117;48.644;9.006;2022-07-10T08:49:49;18.80;87.50
21906;DHT22;11117;48.644;9.006;2022-07-10T08:52:29;18.90;86.90
21906;DHT22;11117;48.644;9.006;2022-07-10T08:54:56;18.80;86.80
21906;DHT22;11117;48.644;9.006;2022-07-10T08:57:23;18.80;85.60
21906;DHT22;11117;48.644;9.006;2022-07-10T08:59:49;19.10;87.30
21906;DHT22;11117;48.644;9.006;2022-07-10T09:02:15;18.80;86.00
21906;DHT22;11117;48.644;9.006;2022-07-10T09:04:40;18.90;86.50
21906;DHT22;11117;48.644;9.006;2022-07-10T09:07:06;18.60;87.00
21906;DHT22;11117;48.644;9.006;2022-07-10T09:09:32;18.40;86.40
21906;DHT22;11117;48.644;9.006;2022-07-10T09:12:15;18.40;85.70
21906;DHT22;11117;48.644;9.006;2022-07-10T09:14:41;18.10;87.00
21906;DHT22;11117;48.644;9.006;2022-07-10T09:17:06;18.30;86.20
21906;DHT22;11117;48.644;9.006;2022-07-10T09:19:32;18.30;86.50
21906;DHT22;11117;48.644;9.006;2022-07-10T09:22:09;18.50;84.80
21906;DHT22;11117;48.644;9.006;2022-07-10T09:24:39;18.50;86.00
21906;DHT22;11117;48.644;9.006;2022-07-10T09:27:05;18.30;86.80
21906;DHT22;11117;48.644;9.006;2022-07-10T09:29:32;18.30;86.50
21906;DHT22;11117;48.644;9.006;2022-07-10T09:31:59;18.30;86.50
21906;DHT22;11117;48.644;9.006;2022-07-10T09:34:48;18.30;84.60
21906;DHT22;11117;48.644;9.006;2022-07-10T09:42:28;19.00;84.70
21906;DHT22;11117;48.644;9.006;2022-07-10T09:50:04;18.50;84.40
21906;DHT22;11117;48.644;9.006;2022-07-10T09:52:45;18.50;86.30
21906;DHT22;11117;48.644;9.006;2022-07-10T09:55:10;18.70;85.20
21906;DHT22;11117;48.644;9.006;2022-07-10T09:57:37;18.60;83.60
21906;DHT22;11117;48.644;9.006;2022-07-10T10:00:03;19.00;84.70
21906;DHT22;11117;48.644;9.006;2022-07-10T10:02:29;19.20;83.10
21906;DHT22;11117;48.644;9.006;2022-07-10T10:04:55;18.70;79.90
21906;DHT22;11117;48.644;9.006;2022-07-10T10:07:21;18.80;82.50
21906;DHT22;11117;48.644;9.006;2022-07-10T10:09:52;18.80;83.90
21906;DHT22;11117;48.644;9.006;2022-07-10T10:12:31;18.70;84.30
21906;DHT22;11117;48.644;9.006;2022-07-10T10:15:00;18.80;85.60
21906;DHT22;11117;48.644;9.006;2022-07-10T10:17:27;19.00;83.60
21906;DHT22;11117;48.644;9.006;2022-07-10T10:19:54;18.90;82.90
21906;DHT22;11117;48.644;9.006;2022-07-10T10:22:21;19.40;83.10
21906;DHT22;11117;48.644;9.006;2022-07-10T10:24:48;19.40;82.20
21906;DHT22;11117;48.644;9.006;2022-07-10T10:27:15;19.40;81.30
21906;DHT22;11117;48.644;9.006;2022-07-10T10:29:41;19.40;82.00
21906;DHT22;11117;48.644;9.006;2022-07-10T10:32:08;19.60;83.40
21906;DHT22;11117;48.644;9.006;2022-07-10T10:34:41;19.20;81.20
21906;DHT22;11117;48.644;9.006;2022-07-10T10:37:06;19.40;82.80
21906;DHT22;11117;48.644;9.006;2022-07-10T10:39:51;19.50;81.30
21906;DHT22;11117;48.644;9.006;2022-07-10T10:45:30;20.10;82.70
21906;DHT22;11117;48.644;9.006;2022-07-10T10:47:59;20.00;79.20
21906;DHT22;11117;48.644;9.006;2022-07-10T10:53:28;19.50;81.40
21906;DHT22;11117;48.644;9.006;2022-07-10T10:58:36;19.20;80.90
21906;DHT22;11117;48.644;9.006;2022-07-10T11:01:23;19.30;78.70
21906;DHT22;11117;48.644;9.006;2022-07-10T11:06:52;19.50;78.90
21906;DHT22;11117;48.644;9.006;2022-07-10T11:14:23;19.70;80.20
21906;DHT22;11117;48.644;9.006;2022-07-10T11:16:51;19.30;79.60
21906;DHT22;11117;48.644;9.006;2022-07-10T11:19:29;19.30;80.50
21906;DHT22;11117;48.644;9.006;2022-07-10T11:30:02;19.00;77.00
21906;DHT22;11117;48.644;9.006;2022-07-10T11:32:28;19.50;77.50
21906;DHT22;11117;48.644;9.006;2022-07-10T11:34:55;19.90;77.70
21906;DHT22;11117;48.644;9.006;2022-07-10T11:37:21;20.00;75.40
21906;DHT22;11117;48.644;9.006;2022-07-10T11:39:46;19.90;77.50
21906;DHT22;11117;48.644;9.006;2022-07-10T11:42:12;19.80;78.30
21906;DHT22;11117;48.644;9.006;2022-07-10T11:44:37;19.50;78.30
21906;DHT22;11117;48.644;9.006;2022-07-10T11:47:04;19.50;79.30
21906;DHT22;11117;48.644;9.006;2022-07-10T11:49:33;19.30;78.10
21906;DHT22;11117;48.644;9.006;2022-07-10T11:52:03;19.10;77.40
21906;DHT22;11117;48.644;9.006;2022-07-10T11:54:29;19.10;77.50
21906;DHT22;11117;48.644;9.006;2022-07-10T11:57:05;19.20;78.60
21906;DHT22;11117;48.644;9.006;2022-07-10T11:59:34;19.10;78.60
21906;DHT22;11117;48.644;9.006;2022-07-10T12:01:59;18.90;78.00
21906;DHT22;11117;48.644;9.006;2022-07-10T12:04:28;19.10;80.00
21906;DHT22;11117;48.644;9.006;2022-07-10T12:06:54;19.30;79.20
21906;DHT22;11117;48.644;9.006;2022-07-10T12:09:20;19.20;77.80
21906;DHT22;11117;48.644;9.006;2022-07-10T12:12:03;19.00;76.80
21906;DHT22;11117;48.644;9.006;2022-07-10T12:14:29;19.10;76.30
21906;DHT22;11117;48.644;9.006;2022-07-10T12:16:56;19.20;77.00
21906;DHT22;11117;48.644;9.006;2022-07-10T12:19:28;19.20;75.40
21906;DHT22;11117;48.644;9.006;2022-07-10T12:21:54;19.10;76.40
21906;DHT22;11117;48.644;9.006;2022-07-10T12:24:20;19.00;77.20
21906;DHT22;11117;48.644;9.006;2022-07-10T12:26:46;19.00;77.20
21906;DHT22;11117;48.644;9.006;2022-07-10T12:29:23;19.00;75.10
21906;DHT22;11117;48.644;9.006;2022-07-10T12:31:50;19.00;75.80
21906;DHT22;11117;48.644;9.006;2022-07-10T12:34:17;19.10;75.20
21906;DHT22;11117;48.644;9.006;2022-07-10T12:36:47;19.20;76.80
21906;DHT22;11117;48.644;9.006;2022-07-10T12:39:15;19.20;76.00
21906;DHT22;11117;48.644;9.006;2022-07-10T12:44:44;19.30;74.20
21906;DHT22;11117;48.644;9.006;2022-07-10T12:47:18;19.10;71.20
21906;DHT22;11117;48.644;9.006;2022-07-10T12:52:25;19.30;72.70
21906;DHT22;11117;48.644;9.006;2022-07-10T12:55:13;19.30;72.30
21906;DHT22;11117;48.644;9.006;2022-07-10T12:57:49;19.50;73.20
21906;DHT22;11117;48.644;9.006;2022-07-10T13:00:16;19.30;73.30
21906;DHT22;11117;48.644;9.006;2022-07-10T13:02:42;19.30;72.70
21906;DHT22;11117;48.644;9.006;2022-07-10T13:05:08;19.30;75.00
21906;DHT22;11117;48.644;9.006;2022-07-10T13:07:36;19.30;72.30
21906;DHT22;11117;48.644;9.006;2022-07-10T13:10:06;19.50;73.60
21906;DHT22;11117;48.644;9.006;2022-07-10T13:12:33;19.30;72.20
21906;DHT22;11117;48.644;9.006;2022-07-10T13:15:00;19.20;72.50
21906;DHT22;11117;48.644;9.006;2022-07-10T13:17:25;19.30;72.20
21906;DHT22;11117;48.644;9.006;2022-07-10T13:19:51;19.20;72.10
21906;DHT22;11117;48.644;9.006;2022-07-10T13:22:17;19.00;72.10
21906;DHT22;11117;48.644;9.006;2022-07-10T13:24:43;19.30;72.20
21906;DHT22;11117;48.644;9.006;2022-07-10T13:27:08;19.40;72.00
21906;DHT22;11117;48.644;9.006;2022-07-10T13:29:37;19.50;72.30
21906;DHT22;11117;48.644;9.006;2022-07-10T13:32:03;19.50;72.00
21906;DHT22;11117;48.644;9.006;2022-07-10T13:34:28;19.40;70.60
21906;DHT22;11117;48.644;9.006;2022-07-10T13:36:55;19.30;71.40
21906;DHT22;11117;48.644;9.006;2022-07-10T13:39:21;19.20;71.70
21906;DHT22;11117;48.644;9.006;2022-07-10T13:41:58;19.10;71.70
21906;DHT22;11117;48.644;9.006;2022-07-10T13:45:41;19.20;72.10
21906;DHT22;11117;48.644;9.006;2022-07-10T13:48:35;19.20;71.00
21906;DHT22;11117;48.644;9.006;2022-07-10T13:52:01;19.30;72.30
21906;DHT22;11117;48.644;9.006;2022-07-10T14:01:15;19.70;70.10
21906;DHT22;11117;48.644;9.006;2022-07-10T14:07:38;19.60;69.60
21906;DHT22;11117;48.644;9.006;2022-07-10T14:10:07;19.40;69.50
21906;DHT22;11117;48.644;9.006;2022-07-10T14:12:33;19.60;69.50
21906;DHT22;11117;48.644;9.006;2022-07-10T14:14:59;19.60;71.00
21906;DHT22;11117;48.644;9.006;2022-07-10T14:17:24;19.70;71.30
21906;DHT22;11117;48.644;9.006;2022-07-10T14:19:50;19.70;70.20
21906;DHT22;11117;48.644;9.006;2022-07-10T14:22:16;19.70;70.80
21906;DHT22;11117;48.644;9.006;2022-07-10T14:24:42;19.80;70.50
21906;DHT22;11117;48.644;9.006;2022-07-10T14:27:10;19.80;71.20
21906;DHT22;11117;48.644;9.006;2022-07-10T14:29:35;19.70;71.00
21906;DHT22;11117;48.644;9.006;2022-07-10T14:32:01;19.70;69.70
21906;DHT22;11117;48.644;9.006;2022-07-10T14:34:26;19.60;69.70
21906;DHT22;11117;48.644;9.006;2022-07-10T14:36:53;19.80;72.20
21906;DHT22;11117;48.644;9.006;2022-07-10T14:39:19;19.60;69.90
21906;DHT22;11117;48.644;9.006;2022-07-10T14:41:45;19.60;69.80
21906;DHT22;11117;48.644;9.006;2022-07-10T14:44:10;19.50;70.90
21906;DHT22;11117;48.644;9.006;2022-07-10T14:46:36;19.60;70.40
21906;DHT22;11117;48.644;9.006;2022-07-10T14:49:01;19.60;70.80
21906;DHT22;11117;48.644;9.006;2022-07-10T14:51:27;19.50;70.90
21906;DHT22;11117;48.644;9.006;2022-07-10T14:53:53;19.30;70.70
21906;DHT22;11117;48.644;9.006;2022-07-10T14:56:18;19.40;72.10
21906;DHT22;11117;48.644;9.006;2022-07-10T14:58:44;19.60;72.00
21906;DHT22;11117;48.644;9.006;2022-07-10T15:01:10;19.60;70.10
21906;DHT22;11117;48.644;9.006;2022-07-10T15:03:37;19.60;70.60
21906;DHT22;11117;48.644;9.006;2022-07-10T15:06:05;19.40;71.10
21906;DHT22;11117;48.644;9.006;2022-07-10T15:08:30;19.50;70.30
21906;DHT22;11117;48.644;9.006;2022-07-10T15:10:56;19.60;71.00
21906;DHT22;11117;48.644;9.006;2022-07-10T15:13:21;19.50;70.50
21906;DHT22;11117;48.644;9.006;2022-07-10T15:15:47;19.50;70.00
21906;DHT22;11117;48.644;9.006;2022-07-10T15:18:13;19.60;70.80
21906;DHT22;11117;48.644;9.006;2022-07-10T15:20:38;19.50;70.40
21906;DHT22;11117;48.644;9.006;2022-07-10T15:23:04;19.40;70.80
21906;DHT22;11117;48.644;9.006;2022-07-10T15:25:29;19.30;70.60
21906;DHT22;11117;48.644;9.006;2022-07-10T15:27:58;19.30;71.60
21906;DHT22;11117;48.644;9.006;2022-07-10T15:30:24;19.30;71.40
21906;DHT22;11117;48.644;9.006;2022-07-10T15:32:49;19.30;70.80
21906;DHT22;11117;48.644;9.006;2022-07-10T15:35:15;19.30;71.00
21906;DHT22;11117;48.644;9.006;2022-07-10T15:37:41;19.40;71.00
21906;DHT22;11117;48.644;9.006;2022-07-10T15:40:07;19.40;71.20
21906;DHT22;11117;48.644;9.006;2022-07-10T15:42:35;19.40;70.90
21906;DHT22;11117;48.644;9.006;2022-07-10T15:45:01;19.30;70.80
21906;DHT22;11117;48.644;9.006;2022-07-10T15:47:29;19.50;71.60
21906;DHT22;11117;48.644;9.006;2022-07-10T15:49:55;19.60;71.60
21906;DHT22;11117;48.644;9.006;2022-07-10T15:52:20;19.70;71.10
21906;DHT22;11117;48.644;9.006;2022-07-10T15:54:46;19.50;70.60
21906;DHT22;11117;48.644;9.006;2022-07-10T15:57:12;19.60;71.00
21906;DHT22;11117;48.644;9.006;2022-07-10T15:59:38;19.70;71.10
21906;DHT22;11117;48.644;9.006;2022-07-10T16:02:06;19.60;71.60
21906;DHT22;11117;48.644;9.006;2022-07-10T16:04:32;19.70;71.30
21906;DHT22;11117;48.644;9.006;2022-07-10T16:06:57;19.80;70.80
21906;DHT22;11117;48.644;9.006;2022-07-10T16:09:23;19.80;71.00
21906;DHT22;11117;48.644;9.006;2022-07-10T16:11:52;19.90;70.50
21906;DHT22;11117;48.644;9.006;2022-07-10T16:14:17;19.70;70.20
21906;DHT22;11117;48.644;9.006;2022-07-10T16:16:46;19.70;70.60
21906;DHT22;11117;48.644;9.006;2022-07-10T16:19:12;19.70;70.20
21906;DHT22;11117;48.644;9.006;2022-07-10T16:21:37;19.60;70.60